金門航空站 - ATIS

METAR RCBS 201200Z 05015KT 9999 FEW015 SCT040 21/16 Q1020 NOSIG RMK A3014(R)=

站台狀態:Online
最後更新:2018-10-20 23:30:02